createdAt,value
2018-03-18T00:01:15.787Z,17.45
2018-03-18T00:03:19.135Z,23.17
2018-03-18T00:05:22.478Z,18.98
2018-03-18T00:07:26.250Z,15.15
2018-03-18T00:09:29.625Z,14.60
2018-03-18T00:11:33.041Z,17.77
2018-03-18T00:13:37.249Z,19.15
2018-03-18T00:15:40.621Z,18.87
2018-03-18T00:17:43.962Z,14.32
2018-03-18T00:19:47.577Z,17.25
2018-03-18T00:21:51.346Z,15.65
2018-03-18T00:23:54.927Z,16.62
2018-03-18T00:25:58.445Z,18.52
2018-03-18T00:28:02.821Z,17.65
2018-03-18T00:30:06.179Z,17.80
2018-03-18T00:32:09.522Z,17.87
2018-03-18T00:34:13.043Z,19.15
2018-03-18T00:36:16.597Z,18.37
2018-03-18T00:38:20.834Z,21.12
2018-03-18T00:40:24.422Z,21.05
2018-03-18T00:42:27.902Z,19.15
2018-03-18T00:44:31.267Z,19.67
2018-03-18T00:46:34.664Z,19.77
2018-03-18T00:48:40.395Z,17.70
2018-03-18T00:50:43.749Z,21.00
2018-03-18T00:52:48.017Z,14.65
2018-03-18T00:54:51.350Z,19.25
2018-03-18T00:56:54.681Z,21.17
2018-03-18T00:58:58.133Z,19.08
2018-03-18T01:01:02.228Z,21.42
2018-03-18T01:03:05.615Z,18.67
2018-03-18T01:05:09.060Z,20.70
2018-03-18T01:07:12.420Z,18.73
2018-03-18T01:09:16.229Z,17.45
2018-03-18T01:11:19.566Z,16.05
2018-03-18T01:13:22.909Z,20.08
2018-03-18T01:15:27.265Z,17.90
2018-03-18T01:17:30.963Z,20.33
2018-03-18T01:19:34.314Z,19.80
2018-03-18T01:21:38.440Z,18.77
2018-03-18T01:23:41.801Z,17.67
2018-03-18T01:25:45.131Z,19.02
2018-03-18T01:27:48.483Z,19.42
2018-03-18T01:29:52.624Z,19.90
2018-03-18T01:31:56.015Z,17.80
2018-03-18T01:33:59.379Z,19.12
2018-03-18T01:36:03.270Z,21.02
2018-03-18T01:38:07.476Z,17.08
2018-03-18T01:40:10.801Z,20.23
2018-03-18T01:42:14.459Z,19.62
2018-03-18T01:44:19.075Z,19.30
2018-03-18T01:46:22.438Z,17.58
2018-03-18T01:48:25.795Z,19.73
2018-03-18T01:50:30.807Z,13.50
2018-03-18T01:52:34.570Z,13.43
2018-03-18T01:54:38.002Z,17.95
2018-03-18T01:56:41.333Z,20.05
2018-03-18T01:58:45.393Z,16.55
2018-03-18T02:00:48.738Z,17.85
2018-03-18T02:02:52.207Z,19.48
2018-03-18T02:04:55.573Z,20.05
2018-03-18T02:06:58.900Z,19.67
2018-03-18T02:09:03.048Z,17.92
2018-03-18T02:11:06.425Z,19.12
2018-03-18T02:13:09.797Z,19.10
2018-03-18T02:15:13.148Z,17.25
2018-03-18T02:17:16.507Z,19.20
2018-03-18T02:19:19.850Z,19.45
2018-03-18T02:21:23.185Z,18.65
2018-03-18T02:23:26.528Z,18.87
2018-03-18T02:25:30.846Z,19.45
2018-03-18T02:27:34.950Z,18.10
2018-03-18T02:29:38.298Z,17.27
2018-03-18T02:31:41.639Z,18.10
2018-03-18T02:33:45.747Z,15.65
2018-03-18T02:35:49.074Z,19.25
2018-03-18T02:37:52.437Z,16.23
2018-03-18T02:39:56.540Z,19.33
2018-03-18T02:41:59.874Z,18.33
2018-03-18T02:44:03.243Z,17.62
2018-03-18T02:46:06.573Z,16.95
2018-03-18T02:48:09.927Z,16.95
2018-03-18T02:50:13.264Z,18.00
2018-03-18T02:52:19.882Z,15.73
2018-03-18T02:54:23.217Z,18.23
2018-03-18T02:56:26.554Z,17.15
2018-03-18T02:58:30.663Z,18.90
2018-03-18T03:00:34.027Z,17.85
2018-03-18T03:02:38.416Z,14.00
2018-03-18T03:04:42.438Z,16.37
2018-03-18T03:06:45.804Z,15.93
2018-03-18T03:08:49.221Z,17.05
2018-03-18T03:10:52.546Z,17.02
2018-03-18T03:12:55.958Z,16.33
2018-03-18T03:15:00.062Z,19.30
2018-03-18T03:17:03.404Z,15.40
2018-03-18T03:19:06.778Z,14.50
2018-03-18T03:21:10.726Z,18.67
2018-03-18T03:23:14.104Z,20.60
2018-03-18T03:25:17.454Z,15.32
2018-03-18T03:27:20.790Z,15.73
2018-03-18T03:29:24.132Z,14.68
2018-03-18T03:31:28.371Z,15.10
2018-03-18T03:33:31.791Z,16.48
2018-03-18T03:35:35.961Z,17.10
2018-03-18T03:37:39.353Z,17.48
2018-03-18T03:39:42.757Z,18.42
2018-03-18T03:41:46.126Z,16.40
2018-03-18T03:43:49.456Z,15.70
2018-03-18T03:45:52.814Z,14.32
2018-03-18T03:47:56.198Z,15.93
2018-03-18T03:49:59.540Z,18.35
2018-03-18T03:52:03.720Z,18.65
2018-03-18T03:54:07.044Z,16.87
2018-03-18T03:56:10.389Z,16.67
2018-03-18T03:58:13.752Z,17.10
2018-03-18T04:00:17.877Z,15.40
2018-03-18T04:02:22.135Z,12.98
2018-03-18T04:04:25.498Z,16.77
2018-03-18T04:06:31.727Z,14.10
2018-03-18T04:08:35.837Z,17.60
2018-03-18T04:10:39.194Z,16.00
2018-03-18T04:12:43.855Z,13.13
2018-03-18T04:14:47.216Z,16.52
2018-03-18T04:16:50.567Z,14.38
2018-03-18T04:18:53.896Z,17.30
2018-03-18T04:20:57.222Z,16.17
2018-03-18T04:23:01.314Z,16.80
2018-03-18T04:25:04.667Z,15.57
2018-03-18T04:27:08.057Z,15.80
2018-03-18T04:29:11.701Z,14.75
2018-03-18T04:31:15.824Z,15.10
2018-03-18T04:33:19.225Z,15.65
2018-03-18T04:35:23.353Z,17.05
2018-03-18T04:37:26.665Z,14.55
2018-03-18T04:39:29.986Z,15.15
2018-03-18T04:41:33.311Z,16.33
2018-03-18T04:43:36.677Z,14.77
2018-03-18T04:45:40.769Z,17.08
2018-03-18T04:47:44.953Z,13.93
2018-03-18T04:49:48.303Z,15.73
2018-03-18T04:51:51.634Z,16.65
2018-03-18T04:53:54.983Z,15.10
2018-03-18T04:55:58.354Z,16.05
2018-03-18T04:58:01.730Z,15.60
2018-03-18T05:00:05.060Z,14.87
2018-03-18T05:02:08.439Z,14.32
2018-03-18T05:04:12.543Z,15.68
2018-03-18T05:06:17.728Z,16.40
2018-03-18T05:08:21.090Z,15.75
2018-03-18T05:10:24.441Z,16.30
2018-03-18T05:12:27.829Z,14.23
2018-03-18T05:14:31.170Z,15.48
2018-03-18T05:16:34.521Z,15.70
2018-03-18T05:18:40.177Z,16.98
2018-03-18T05:20:43.637Z,14.52
2018-03-18T05:22:46.992Z,14.73
2018-03-18T05:24:51.101Z,12.50
2018-03-18T05:26:54.471Z,16.55
2018-03-18T05:28:58.589Z,13.15
2018-03-18T05:31:02.694Z,14.63
2018-03-18T05:33:07.600Z,13.43
2018-03-18T05:35:10.938Z,15.77
2018-03-18T05:37:14.413Z,15.43
2018-03-18T05:39:18.539Z,16.73
2018-03-18T05:41:21.883Z,16.55
2018-03-18T05:43:25.996Z,15.57
2018-03-18T05:45:29.435Z,17.17
2018-03-18T05:47:32.790Z,13.75
2018-03-18T05:49:36.143Z,17.50
2018-03-18T05:51:39.479Z,11.25
2018-03-18T05:53:43.613Z,14.30
2018-03-18T05:55:47.211Z,16.30
2018-03-18T05:57:50.570Z,16.20
2018-03-18T05:59:53.952Z,16.37
2018-03-18T06:01:57.333Z,15.35
2018-03-18T06:04:02.063Z,17.83
2018-03-18T06:06:05.430Z,16.75
2018-03-18T06:08:09.533Z,15.60
2018-03-18T06:10:12.928Z,17.02
2018-03-18T06:12:16.281Z,15.82
2018-03-18T06:14:19.659Z,15.70
2018-03-18T06:16:23.013Z,15.75
2018-03-18T06:18:26.403Z,14.60
2018-03-18T06:20:29.723Z,15.90
2018-03-18T06:22:33.078Z,15.52
2018-03-18T06:24:36.837Z,15.85
2018-03-18T06:26:40.174Z,16.80
2018-03-18T06:28:43.522Z,13.75
2018-03-18T06:30:46.867Z,15.20
2018-03-18T06:32:50.189Z,16.37
2018-03-18T06:34:54.294Z,13.65
2018-03-18T06:36:58.420Z,15.50
2018-03-18T06:39:02.535Z,17.60
2018-03-18T06:41:05.923Z,11.93
2018-03-18T06:43:09.284Z,14.68
2018-03-18T06:45:12.710Z,13.25
2018-03-18T06:47:16.442Z,16.85
2018-03-18T06:49:19.866Z,13.32
2018-03-18T06:51:23.788Z,14.48
2018-03-18T06:53:27.924Z,15.10
2018-03-18T06:55:31.312Z,13.57
2018-03-18T06:57:36.626Z,16.15
2018-03-18T06:59:40.863Z,17.02
2018-03-18T07:01:45.685Z,15.10
2018-03-18T07:03:49.806Z,14.18
2018-03-18T07:05:55.967Z,14.73
2018-03-18T07:07:59.908Z,15.38
2018-03-18T07:10:03.258Z,13.20
2018-03-18T07:12:06.602Z,14.15
2018-03-18T07:14:10.303Z,14.18
2018-03-18T07:16:13.658Z,11.57
2018-03-18T07:18:16.996Z,15.60
2018-03-18T07:20:21.600Z,16.50
2018-03-18T07:22:24.935Z,10.27
2018-03-18T07:24:29.322Z,10.40
2018-03-18T07:26:32.710Z,14.00
2018-03-18T07:28:37.289Z,10.35
2018-03-18T07:30:42.880Z,16.95
2018-03-18T07:32:46.276Z,12.80
2018-03-18T07:34:49.747Z,11.93
2018-03-18T07:36:53.153Z,10.02
2018-03-18T07:38:57.326Z,13.50
2018-03-18T07:41:00.769Z,15.18
2018-03-18T07:43:04.142Z,12.10
2018-03-18T07:45:08.247Z,14.63
2018-03-18T07:47:11.633Z,15.10
2018-03-18T07:49:15.020Z,13.43
2018-03-18T07:51:18.357Z,14.73
2018-03-18T07:53:23.506Z,15.27
2018-03-18T07:55:27.598Z,15.55
2018-03-18T07:57:33.780Z,13.77
2018-03-18T07:59:38.146Z,14.07
2018-03-18T08:01:41.764Z,13.65
2018-03-18T08:03:45.980Z,13.85
2018-03-18T08:05:50.073Z,15.13
2018-03-18T08:07:53.430Z,11.45
2018-03-18T08:09:57.882Z,13.52
2018-03-18T08:12:01.258Z,13.77
2018-03-18T08:14:05.744Z,14.55
2018-03-18T08:16:09.111Z,12.80
2018-03-18T08:18:12.685Z,14.32
2018-03-18T08:20:16.902Z,11.82
2018-03-18T08:22:21.112Z,11.85
2018-03-18T08:24:24.509Z,15.38
2018-03-18T08:26:28.609Z,14.05
2018-03-18T08:28:32.719Z,11.82
2018-03-18T08:30:36.938Z,15.52
2018-03-18T08:32:41.107Z,13.05
2018-03-18T08:34:45.662Z,13.40
2018-03-18T08:36:49.429Z,9.35
2018-03-18T08:38:53.333Z,11.98
2018-03-18T08:40:56.700Z,15.48
2018-03-18T08:43:00.040Z,12.63
2018-03-18T08:45:03.431Z,15.52
2018-03-18T08:47:07.485Z,13.00
2018-03-18T08:49:12.418Z,14.50
2018-03-18T08:51:17.322Z,13.88
2018-03-18T08:53:21.299Z,14.38
2018-03-18T08:55:25.092Z,14.25
2018-03-18T08:57:28.533Z,15.02
2018-03-18T08:59:32.926Z,13.82
2018-03-18T09:01:36.317Z,6.22
2018-03-18T09:03:40.972Z,13.40
2018-03-18T09:05:45.539Z,14.27
2018-03-18T09:07:49.557Z,13.98
2018-03-18T09:09:55.946Z,11.35
2018-03-18T09:12:00.291Z,15.20
2018-03-18T09:14:04.852Z,13.93
2018-03-18T09:16:11.109Z,15.82
2018-03-18T09:18:15.029Z,9.70
2018-03-18T09:20:19.188Z,12.82
2018-03-18T09:22:22.612Z,11.05
2018-03-18T09:24:25.993Z,14.25
2018-03-18T09:26:30.295Z,14.70
2018-03-18T09:28:33.652Z,12.30
2018-03-18T09:30:37.022Z,16.70
2018-03-18T09:32:40.360Z,15.93
2018-03-18T09:34:45.018Z,15.05
2018-03-18T09:36:49.646Z,14.40
2018-03-18T09:38:53.264Z,15.70
2018-03-18T09:40:58.065Z,15.93
2018-03-18T09:45:47.375Z,15.30
2018-03-18T09:47:51.646Z,14.23
2018-03-18T09:49:55.005Z,14.77
2018-03-18T09:51:58.497Z,12.20
2018-03-18T09:54:02.635Z,14.70
2018-03-18T09:56:06.024Z,14.18
2018-03-18T09:58:09.771Z,14.90
2018-03-18T10:00:13.214Z,14.43
2018-03-18T10:02:17.741Z,11.85
2018-03-18T10:04:21.263Z,13.48
2018-03-18T10:06:26.504Z,16.17
2018-03-18T10:08:32.612Z,15.95
2018-03-18T10:10:36.288Z,14.32
2018-03-18T10:12:41.192Z,13.57
2018-03-18T10:14:44.757Z,16.42
2018-03-18T10:16:48.103Z,16.37
2018-03-18T10:18:52.367Z,17.40
2018-03-18T10:20:55.873Z,15.57
2018-03-18T10:22:59.229Z,15.20
2018-03-18T10:25:02.736Z,15.30
2018-03-18T10:27:07.571Z,12.90
2018-03-18T10:29:11.047Z,14.07
2018-03-18T10:31:14.452Z,14.45
2018-03-18T10:33:18.330Z,16.05
2018-03-18T10:35:22.002Z,12.45
2018-03-18T10:37:25.424Z,15.05
2018-03-18T10:39:29.533Z,17.05
2018-03-18T10:41:32.971Z,12.90
2018-03-18T10:43:37.486Z,10.20
2018-03-18T10:45:41.061Z,15.82
2018-03-18T10:47:44.742Z,13.45
2018-03-18T10:49:49.433Z,11.35
2018-03-18T10:51:52.860Z,10.00
2018-03-18T10:53:57.125Z,13.68
2018-03-18T10:56:00.486Z,11.75
2018-03-18T10:58:06.235Z,15.40
2018-03-18T11:00:09.652Z,11.38
2018-03-18T11:02:14.761Z,11.27
2018-03-18T11:04:18.132Z,14.65
2018-03-18T11:06:23.231Z,14.10
2018-03-18T11:08:26.605Z,15.60
2018-03-18T11:10:30.088Z,10.60
2018-03-18T11:12:33.702Z,10.93
2018-03-18T11:14:38.236Z,14.10
2018-03-18T11:16:41.663Z,14.70
2018-03-18T11:18:45.807Z,16.33
2018-03-18T11:20:49.199Z,12.30
2018-03-18T11:22:53.439Z,10.77
2018-03-18T11:24:56.768Z,13.62
2018-03-18T11:27:00.114Z,14.82
2018-03-18T11:29:03.454Z,13.68
2018-03-18T11:31:07.606Z,13.88
2018-03-18T11:33:10.967Z,13.13
2018-03-18T11:35:14.366Z,13.73
2018-03-18T11:37:17.718Z,13.80
2018-03-18T11:39:21.094Z,13.27
2018-03-18T11:41:24.468Z,10.80
2018-03-18T11:43:27.830Z,13.80
2018-03-18T11:45:31.169Z,12.63
2018-03-18T11:47:34.745Z,9.45
2018-03-18T11:49:38.136Z,13.85
2018-03-18T11:51:41.499Z,11.23
2018-03-18T11:53:44.845Z,12.30
2018-03-18T11:55:48.225Z,10.10
2018-03-18T11:57:51.585Z,13.62
2018-03-18T11:59:55.194Z,12.60
2018-03-18T12:01:58.721Z,14.55
2018-03-18T12:04:02.101Z,10.23
2018-03-18T12:06:05.488Z,11.40
2018-03-18T12:08:08.849Z,12.75
2018-03-18T12:10:12.416Z,14.98
2018-03-18T12:12:16.555Z,14.63
2018-03-18T12:14:19.939Z,13.07
2018-03-18T12:16:23.313Z,14.18
2018-03-18T12:18:26.709Z,13.82
2018-03-18T12:20:30.100Z,13.52
2018-03-18T12:22:33.522Z,14.93
2018-03-18T12:24:36.860Z,12.15
2018-03-18T12:26:41.078Z,13.45
2018-03-18T12:28:44.424Z,13.38
2018-03-18T12:30:47.766Z,16.35
2018-03-18T12:32:51.138Z,14.15
2018-03-18T12:34:54.518Z,12.93
2018-03-18T12:36:57.878Z,13.98
2018-03-18T12:39:01.238Z,15.18
2018-03-18T12:41:04.610Z,15.20
2018-03-18T12:43:19.797Z,13.43
2018-03-18T12:45:23.895Z,15.15
2018-03-18T12:47:28.578Z,9.95
2018-03-18T12:49:34.227Z,15.13
2018-03-18T12:51:38.325Z,15.05
2018-03-18T12:53:42.683Z,13.68
2018-03-18T12:55:46.082Z,15.80
2018-03-18T12:57:50.345Z,16.58
2018-03-18T12:59:53.720Z,14.68
2018-03-18T13:01:57.099Z,15.90
2018-03-18T13:04:00.512Z,12.70
2018-03-18T13:06:03.908Z,14.18
2018-03-18T13:08:07.315Z,13.48
2018-03-18T13:10:10.677Z,12.52
2018-03-18T13:12:14.258Z,12.90
2018-03-18T13:14:18.415Z,12.90
2018-03-18T13:16:21.794Z,14.25
2018-03-18T13:18:25.330Z,11.85
2018-03-18T13:20:28.845Z,13.10
2018-03-18T13:22:32.213Z,14.30
2018-03-18T13:24:35.608Z,14.73
2018-03-18T13:26:39.169Z,14.63
2018-03-18T13:28:42.548Z,15.75
2018-03-18T13:30:46.805Z,12.27
2018-03-18T13:32:50.477Z,12.57
2018-03-18T13:34:55.465Z,13.95
2018-03-18T13:36:59.801Z,14.48
2018-03-18T13:39:04.204Z,16.10
2018-03-18T13:41:07.544Z,12.85
2018-03-18T13:43:10.968Z,15.23
2018-03-18T13:45:15.152Z,13.70
2018-03-18T13:47:19.330Z,11.25
2018-03-18T13:49:22.764Z,12.02
2018-03-18T13:51:26.135Z,12.85
2018-03-18T13:53:30.259Z,11.88
2018-03-18T13:55:33.830Z,15.18
2018-03-18T13:57:37.402Z,13.32
2018-03-18T13:59:40.922Z,8.65
2018-03-18T14:01:44.689Z,12.82
2018-03-18T14:03:49.031Z,11.80
2018-03-18T14:05:53.204Z,13.02
2018-03-18T14:07:56.610Z,11.00
2018-03-18T14:10:00.293Z,13.85
2018-03-18T14:12:04.451Z,14.45
2018-03-18T14:14:09.786Z,13.45
2018-03-18T14:16:13.492Z,11.10
2018-03-18T14:18:16.944Z,13.52
2018-03-18T14:20:20.355Z,12.55
2018-03-18T14:22:23.830Z,12.40
2018-03-18T14:24:27.266Z,12.52
2018-03-18T14:26:30.672Z,13.55
2018-03-18T14:28:34.051Z,11.15
2018-03-18T14:30:38.200Z,14.05
2018-03-18T14:32:42.187Z,12.23
2018-03-18T14:34:45.602Z,14.23
2018-03-18T14:36:49.178Z,11.55
2018-03-18T14:38:52.621Z,13.82
2018-03-18T14:40:56.006Z,7.80
2018-03-18T14:43:00.260Z,12.05
2018-03-18T14:45:03.730Z,11.65
2018-03-18T14:47:07.454Z,12.88
2018-03-18T14:49:11.208Z,11.73
2018-03-18T14:51:15.982Z,9.52
2018-03-18T14:53:19.367Z,10.38
2018-03-18T14:55:22.715Z,11.68
2018-03-18T14:57:26.431Z,12.90
2018-03-18T14:59:30.321Z,12.88
2018-03-18T15:01:34.761Z,10.27
2018-03-18T15:03:38.349Z,12.52
2018-03-18T15:05:41.816Z,11.98
2018-03-18T15:07:46.215Z,11.85
2018-03-18T15:09:50.684Z,13.30
2018-03-18T15:11:54.108Z,12.32
2018-03-18T15:13:58.733Z,11.18
2018-03-18T15:16:02.394Z,11.18
2018-03-18T15:18:06.834Z,11.40
2018-03-18T15:20:11.223Z,12.25
2018-03-18T15:22:15.425Z,11.03
2018-03-18T15:24:19.663Z,12.23
2018-03-18T15:26:23.847Z,11.52
2018-03-18T15:28:27.864Z,11.65
2018-03-18T15:30:32.160Z,11.43
2018-03-18T15:32:36.414Z,12.10
2018-03-18T15:34:41.221Z,10.30
2018-03-18T15:36:45.132Z,11.63
2018-03-18T15:38:49.063Z,15.60
2018-03-18T15:40:52.553Z,11.57
2018-03-18T15:42:55.971Z,11.77
2018-03-18T15:44:59.518Z,11.85
2018-03-18T15:47:03.962Z,9.50
2018-03-18T15:49:07.497Z,10.95
2018-03-18T15:51:11.921Z,10.53
2018-03-18T15:53:15.714Z,10.95
2018-03-18T15:55:19.783Z,10.43
2018-03-18T15:57:23.456Z,11.57
2018-03-18T15:59:26.824Z,10.60
2018-03-18T16:01:30.318Z,11.00
2018-03-18T16:03:34.446Z,8.75
2018-03-18T16:05:37.838Z,10.90
2018-03-18T16:07:41.236Z,10.77
2018-03-18T16:09:44.610Z,10.27
2018-03-18T16:11:48.012Z,12.05
2018-03-18T16:13:51.777Z,12.48
2018-03-18T16:15:55.922Z,11.52
2018-03-18T16:18:00.263Z,12.15
2018-03-18T16:20:03.887Z,12.68
2018-03-18T16:22:08.039Z,11.30
2018-03-18T16:24:11.407Z,12.52
2018-03-18T16:26:15.533Z,9.02
2018-03-18T16:28:18.960Z,11.18
2018-03-18T16:30:34.281Z,10.90
2018-03-18T16:32:37.679Z,11.52
2018-03-18T16:34:41.083Z,10.20
2018-03-18T16:36:45.250Z,9.68
2018-03-18T16:38:48.883Z,10.35
2018-03-18T16:40:53.094Z,12.10
2018-03-18T16:42:56.674Z,9.77
2018-03-18T16:45:00.063Z,12.37
2018-03-18T16:47:03.458Z,11.63
2018-03-18T16:49:06.881Z,15.35
2018-03-18T16:51:11.121Z,11.70
2018-03-18T16:53:15.285Z,9.40
2018-03-18T16:55:19.466Z,11.60
2018-03-18T16:57:22.906Z,11.00
2018-03-18T16:59:26.370Z,8.95
2018-03-18T17:01:30.625Z,11.90
2018-03-18T17:03:34.085Z,11.00
2018-03-18T17:05:37.479Z,10.43
2018-03-18T17:07:40.928Z,18.37
2018-03-18T17:09:44.400Z,11.15
2018-03-18T17:11:47.898Z,10.02
2018-03-18T17:13:51.532Z,10.50
2018-03-18T17:15:55.415Z,11.95
2018-03-18T17:17:58.811Z,7.55
2018-03-18T17:20:02.230Z,9.95
2018-03-18T17:22:06.494Z,11.50
2018-03-18T17:24:09.936Z,9.10
2018-03-18T17:26:13.314Z,11.32
2018-03-18T17:28:16.714Z,11.80
2018-03-18T17:30:21.213Z,12.18
2018-03-18T17:32:24.713Z,11.25
2018-03-18T17:34:28.083Z,11.52
2018-03-18T17:36:31.503Z,9.10
2018-03-18T17:38:35.855Z,11.40
2018-03-18T17:40:40.338Z,11.30
2018-03-18T17:42:44.114Z,10.50
2018-03-18T17:44:59.319Z,11.52
2018-03-18T17:47:15.415Z,11.30
2018-03-18T17:49:31.184Z,11.12
2018-03-18T17:54:22.390Z,11.55
2018-03-18T17:56:37.349Z,9.32
2018-03-18T17:58:40.783Z,11.38
2018-03-18T18:00:44.173Z,12.10
2018-03-18T18:02:47.753Z,8.10
2018-03-18T18:04:51.248Z,11.82
2018-03-18T18:06:54.626Z,12.00
2018-03-18T18:08:59.207Z,11.00
2018-03-18T18:11:03.910Z,10.02
2018-03-18T18:13:07.908Z,11.30
2018-03-18T18:15:11.370Z,12.02
2018-03-18T18:17:14.736Z,9.90
2018-03-18T18:19:18.091Z,9.60
2018-03-18T18:21:21.483Z,10.35
2018-03-18T18:25:36.451Z,11.85
2018-03-18T18:27:40.383Z,10.50
2018-03-18T18:29:43.985Z,10.52
2018-03-18T18:31:48.841Z,10.53
2018-03-18T18:33:53.712Z,11.65
2018-03-18T18:35:58.362Z,9.98
2018-03-18T18:38:02.702Z,10.70
2018-03-18T18:40:06.841Z,9.40
2018-03-18T18:42:10.444Z,10.52
2018-03-18T18:44:13.952Z,11.35
2018-03-18T18:46:17.444Z,10.73
2018-03-18T18:48:21.800Z,11.25
2018-03-18T18:50:25.166Z,11.55
2018-03-18T18:52:29.368Z,12.27
2018-03-18T18:54:32.772Z,10.75
2018-03-18T18:56:38.149Z,13.73
2018-03-18T18:58:42.449Z,10.60
2018-03-18T19:00:46.333Z,10.10
2018-03-18T19:02:50.434Z,11.63
2018-03-18T19:04:55.731Z,11.43
2018-03-18T19:06:59.181Z,16.25
2018-03-18T19:09:04.268Z,11.32
2018-03-18T19:11:07.658Z,11.02
2018-03-18T19:13:10.995Z,11.73
2018-03-18T19:15:16.461Z,10.65
2018-03-18T19:17:20.302Z,12.07
2018-03-18T19:19:24.447Z,9.50
2018-03-18T19:21:28.570Z,9.93
2018-03-18T19:23:32.669Z,11.30
2018-03-18T19:25:36.824Z,9.35
2018-03-18T19:27:40.176Z,9.55
2018-03-18T19:29:44.585Z,8.93
2018-03-18T19:31:48.693Z,11.02
2018-03-18T19:33:52.860Z,9.75
2018-03-18T19:35:56.667Z,9.88
2018-03-18T19:38:02.798Z,12.20
2018-03-18T19:40:06.163Z,9.38
2018-03-18T19:42:10.279Z,11.52
2018-03-18T19:44:14.445Z,12.18
2018-03-18T19:46:20.130Z,11.35
2018-03-18T19:48:24.601Z,11.38
2018-03-18T19:50:29.765Z,9.13
2018-03-18T19:52:37.788Z,10.73
2018-03-18T19:54:42.965Z,11.68
2018-03-18T19:56:48.668Z,12.07
2018-03-18T19:58:53.376Z,9.05
2018-03-18T20:00:58.642Z,10.23
2018-03-18T20:03:02.006Z,10.20
2018-03-18T20:05:06.319Z,8.43
2018-03-18T20:07:12.689Z,9.55
2018-03-18T20:09:21.069Z,9.48
2018-03-18T20:11:27.146Z,9.55
2018-03-18T20:13:34.020Z,10.23
2018-03-18T20:15:37.465Z,11.38
2018-03-18T20:17:43.882Z,8.05
2018-03-18T20:19:47.343Z,9.85
2018-03-18T20:21:52.445Z,10.05
2018-03-18T20:23:56.047Z,11.48
2018-03-18T20:26:04.329Z,7.93
2018-03-18T20:28:07.785Z,10.32
2018-03-18T20:30:12.738Z,9.93
2018-03-18T20:32:16.166Z,10.57
2018-03-18T20:36:30.676Z,10.63
2018-03-18T20:38:34.809Z,10.45
2018-03-18T20:40:38.179Z,9.35
2018-03-18T20:42:42.312Z,10.13
2018-03-18T20:44:46.662Z,9.07
2018-03-18T20:46:50.613Z,10.90
2018-03-18T20:48:57.557Z,9.82
2018-03-18T20:51:02.162Z,8.82
2018-03-18T20:53:05.750Z,10.88
2018-03-18T20:55:09.103Z,9.32
2018-03-18T20:57:14.614Z,9.80
2018-03-18T20:59:18.722Z,9.95
2018-03-18T21:01:23.586Z,10.52
2018-03-18T21:03:29.942Z,10.65
2018-03-18T21:05:35.366Z,9.07
2018-03-18T21:07:39.724Z,11.23
2018-03-18T21:09:43.119Z,8.15
2018-03-18T21:11:46.492Z,10.07
2018-03-18T21:13:53.312Z,9.80
2018-03-18T21:15:58.453Z,10.63
2018-03-18T21:18:03.813Z,10.98
2018-03-18T21:20:08.144Z,9.40
2018-03-18T21:22:15.150Z,10.65
2018-03-18T21:24:19.522Z,9.20
2018-03-18T21:26:23.741Z,11.05
2018-03-18T21:28:30.711Z,10.50
2018-03-18T21:30:34.105Z,10.00
2018-03-18T21:32:38.238Z,9.45
2018-03-18T21:34:42.356Z,10.90
2018-03-18T21:36:45.718Z,10.52
2018-03-18T21:38:49.876Z,10.55
2018-03-18T21:40:55.270Z,9.15
2018-03-18T21:42:58.754Z,9.35
2018-03-18T21:45:02.288Z,10.27
2018-03-18T21:47:05.703Z,9.80
2018-03-18T21:49:09.948Z,8.88
2018-03-18T21:53:23.217Z,9.70
2018-03-18T21:55:28.224Z,10.07
2018-03-18T21:57:36.256Z,11.30
2018-03-18T21:59:45.124Z,8.02
2018-03-18T22:01:48.670Z,11.32
2018-03-18T22:03:57.275Z,9.40
2018-03-18T22:06:02.569Z,10.55
2018-03-18T22:08:07.556Z,10.77
2018-03-18T22:10:14.581Z,10.32
2018-03-18T22:12:21.438Z,9.43
2018-03-18T22:14:27.310Z,10.15
2018-03-18T22:16:32.978Z,12.10
2018-03-18T22:18:37.031Z,9.05
2018-03-18T22:20:42.429Z,10.25
2018-03-18T22:22:46.308Z,9.60
2018-03-18T22:24:50.638Z,10.60
2018-03-18T22:26:58.512Z,9.23
2018-03-18T22:29:03.771Z,10.70
2018-03-18T22:31:08.680Z,10.40
2018-03-18T22:33:13.327Z,9.80
2018-03-18T22:35:17.421Z,8.52
2018-03-18T22:37:22.781Z,10.15
2018-03-18T22:39:26.470Z,9.15
2018-03-18T22:41:32.054Z,9.50
2018-03-18T22:43:35.703Z,9.10
2018-03-18T22:45:39.834Z,9.50
2018-03-18T22:47:45.266Z,10.60
2018-03-18T22:49:52.742Z,9.50
2018-03-18T22:51:57.166Z,10.05
2018-03-18T22:54:01.711Z,8.90
2018-03-18T22:56:08.489Z,8.73
2018-03-18T22:58:12.922Z,9.60
2018-03-18T23:00:18.609Z,9.65
2018-03-18T23:02:22.943Z,9.82
2018-03-18T23:04:27.918Z,9.55
2018-03-18T23:06:32.093Z,10.00
2018-03-18T23:08:36.890Z,9.40
2018-03-18T23:10:45.862Z,10.25
2018-03-18T23:12:49.313Z,10.90
2018-03-18T23:14:54.511Z,10.77
2018-03-18T23:16:58.334Z,8.75
2018-03-18T23:19:03.136Z,9.65
2018-03-18T23:21:06.782Z,9.43
2018-03-18T23:23:11.935Z,8.15
2018-03-18T23:25:15.723Z,8.35
2018-03-18T23:27:20.854Z,9.43
2018-03-18T23:29:25.939Z,9.25
2018-03-18T23:31:31.609Z,9.35
2018-03-18T23:33:36.412Z,8.60
2018-03-18T23:35:41.196Z,9.68
2018-03-18T23:37:45.309Z,9.13
2018-03-18T23:39:48.666Z,10.57
2018-03-18T23:41:52.055Z,10.00
2018-03-18T23:43:55.472Z,9.18
2018-03-18T23:45:58.872Z,8.30
2018-03-18T23:48:02.975Z,9.80
2018-03-18T23:50:06.347Z,8.52
2018-03-18T23:52:09.687Z,9.43
2018-03-18T23:54:13.020Z,8.30
2018-03-18T23:56:16.394Z,9.68
2018-03-18T23:58:19.718Z,7.55
